Time;durP1;ratioP1;P1;durP2;ratioP2;P2;SDS_P1;SDS_P2;PMS_P1;PMS_P2;Temp;Humidity;BMP_temperature;BMP_pressure;BME280_temperature;BME280_humidity;BME280_pressure;Samples;Min_cycle;Max_cycle;Signal;HPM_P1;HPM_P2
2023/07/25 00:01:21;;;;;;;5.50;4.90;;;15.50;99.90;;;;;;5131072;28;20197;-45
2023/07/25 00:03:52;;;;;;;6.23;5.73;;;15.50;99.90;;;;;;5129387;28;20209;-46
2023/07/25 00:06:23;;;;;;;5.30;4.80;;;15.50;99.90;;;;;;5130559;28;20181;-45
2023/07/25 00:08:54;;;;;;;6.30;5.67;;;15.50;99.90;;;;;;5127694;28;20194;-45
2023/07/25 00:11:24;;;;;;;5.13;4.80;;;15.40;99.90;;;;;;5125108;28;20174;-45
2023/07/25 00:13:55;;;;;;;7.97;5.43;;;15.40;99.90;;;;;;5136379;28;20702;-45
2023/07/25 00:16:26;;;;;;;5.00;4.57;;;15.40;99.90;;;;;;5130553;28;20201;-45
2023/07/25 00:18:56;;;;;;;4.47;4.17;;;15.40;99.90;;;;;;5136575;28;20183;-45
2023/07/25 00:21:27;;;;;;;3.70;3.50;;;15.30;99.90;;;;;;5132363;28;20185;-45
2023/07/25 00:23:58;;;;;;;5.40;4.63;;;15.30;99.90;;;;;;5114931;28;20202;-45
2023/07/25 00:26:29;;;;;;;7.13;6.07;;;15.20;99.90;;;;;;5129818;28;20179;-44
2023/07/25 00:29:00;;;;;;;4.37;4.03;;;15.20;99.90;;;;;;5130252;28;20182;-45
2023/07/25 00:31:31;;;;;;;8.00;4.97;;;15.20;99.90;;;;;;5131410;28;20436;-45
2023/07/25 00:34:03;;;;;;;9.00;4.93;;;15.20;99.90;;;;;;5136250;28;20202;-45
2023/07/25 00:36:34;;;;;;;5.70;5.20;;;15.20;99.90;;;;;;5141998;28;20503;-45
2023/07/25 00:39:05;;;;;;;10.03;4.43;;;15.10;99.90;;;;;;5142266;28;20434;-46
2023/07/25 00:41:36;;;;;;;5.33;4.83;;;15.10;99.90;;;;;;5139637;28;20181;-44
2023/07/25 00:44:09;;;;;;;5.17;4.77;;;15.00;99.90;;;;;;5129648;28;20449;-46
2023/07/25 00:46:43;;;;;;;5.30;4.90;;;15.00;99.90;;;;;;5145473;28;20182;-46
2023/07/25 00:49:14;;;;;;;4.87;4.53;;;15.00;99.90;;;;;;5147686;28;20960;-45
2023/07/25 00:51:45;;;;;;;6.20;5.70;;;15.00;99.90;;;;;;5148030;28;20499;-45
2023/07/25 00:54:16;;;;;;;6.47;5.37;;;15.00;99.90;;;;;;5145270;28;20216;-47
2023/07/25 00:56:47;;;;;;;10.67;6.73;;;14.90;99.90;;;;;;5144226;28;20715;-45
2023/07/25 00:59:18;;;;;;;6.57;5.97;;;15.00;99.90;;;;;;5149461;28;20428;-45
2023/07/25 01:01:48;;;;;;;5.60;4.80;;;15.00;99.90;;;;;;5149119;28;20182;-45
2023/07/25 01:04:19;;;;;;;7.97;6.20;;;15.00;99.90;;;;;;5138673;28;20218;-46
2023/07/25 01:06:52;;;;;;;4.60;4.37;;;15.00;99.90;;;;;;5144780;28;20186;-46
2023/07/25 01:09:39;;;;;;;7.60;5.40;;;15.00;99.90;;;;;;5147367;28;20504;-46
2023/07/25 01:12:11;;;;;;;5.77;5.13;;;15.00;99.90;;;;;;5158412;28;20448;-45
2023/07/25 01:14:45;;;;;;;6.33;5.53;;;15.00;99.90;;;;;;5135540;28;20489;-46
2023/07/25 01:17:19;;;;;;;14.20;7.80;;;14.90;99.90;;;;;;5142399;28;20432;-45
2023/07/25 01:19:51;;;;;;;6.67;5.97;;;14.90;99.90;;;;;;5158633;28;20451;-46
2023/07/25 01:22:25;;;;;;;13.70;8.43;;;14.90;99.90;;;;;;5151018;28;20437;-45
2023/07/25 01:24:55;;;;;;;9.77;7.10;;;14.90;99.90;;;;;;5148056;28;20436;-45
2023/07/25 01:27:26;;;;;;;8.30;6.47;;;14.80;99.90;;;;;;5147246;28;20441;-45
2023/07/25 01:29:57;;;;;;;16.03;9.37;;;14.90;99.90;;;;;;5146906;28;20225;-44
2023/07/25 01:32:30;;;;;;;6.73;6.20;;;14.80;99.90;;;;;;5145173;28;20276;-45
2023/07/25 01:35:01;;;;;;;9.67;5.77;;;14.80;99.90;;;;;;5148461;28;20206;-46
2023/07/25 01:37:31;;;;;;;6.50;5.90;;;14.80;99.90;;;;;;5138031;28;20468;-45
2023/07/25 01:40:03;;;;;;;7.20;6.33;;;14.80;99.90;;;;;;5143485;28;20189;-45
2023/07/25 01:42:34;;;;;;;12.00;7.83;;;14.80;99.90;;;;;;5143826;28;20186;-46
2023/07/25 01:45:05;;;;;;;13.03;7.13;;;14.80;99.90;;;;;;5142852;28;20478;-46
2023/07/25 01:47:36;;;;;;;13.20;8.30;;;14.80;99.90;;;;;;5146794;28;20182;-45
2023/07/25 01:50:07;;;;;;;6.93;6.00;;;14.80;99.90;;;;;;5138207;28;20440;-45
2023/07/25 01:52:37;;;;;;;9.23;7.07;;;14.90;99.90;;;;;;5147861;28;20333;-45
2023/07/25 01:55:09;;;;;;;7.47;6.17;;;15.00;99.90;;;;;;5137633;28;20209;-44
2023/07/25 01:57:39;;;;;;;15.07;8.53;;;15.00;99.90;;;;;;5137205;28;20187;-44
2023/07/25 02:00:11;;;;;;;12.83;9.30;;;15.20;99.90;;;;;;5140839;28;20459;-44
2023/07/25 02:02:42;;;;;;;8.10;7.30;;;15.20;99.90;;;;;;5147559;28;20198;-44
2023/07/25 02:05:12;;;;;;;18.60;9.07;;;15.20;99.90;;;;;;5141400;28;20413;-44
2023/07/25 02:07:43;;;;;;;9.43;7.70;;;15.20;99.90;;;;;;5139786;28;20643;-46
2023/07/25 02:10:14;;;;;;;14.00;9.57;;;15.20;99.90;;;;;;5139373;28;20205;-44
2023/07/25 02:12:45;;;;;;;11.57;8.07;;;15.10;99.90;;;;;;5144113;28;20340;-44
2023/07/25 02:15:15;;;;;;;9.40;8.40;;;15.10;99.90;;;;;;5140837;28;20552;-45
2023/07/25 02:17:46;;;;;;;16.83;10.77;;;15.10;99.90;;;;;;5142472;28;20192;-44
2023/07/25 02:20:17;;;;;;;11.90;8.03;;;15.10;99.90;;;;;;5147313;28;20200;-43
2023/07/25 02:22:48;;;;;;;12.60;9.33;;;15.10;99.90;;;;;;5148453;28;20280;-45
2023/07/25 02:25:20;;;;;;;26.80;10.80;;;15.10;99.90;;;;;;5143966;28;20189;-45
2023/07/25 02:27:50;;;;;;;16.30;8.20;;;15.20;99.90;;;;;;5141029;28;20249;-45
2023/07/25 02:30:22;;;;;;;10.50;6.77;;;15.20;99.90;;;;;;5140210;28;20442;-45
2023/07/25 02:32:52;;;;;;;9.83;7.50;;;15.20;99.90;;;;;;5147812;28;20225;-45
2023/07/25 02:35:23;;;;;;;12.97;8.40;;;15.20;99.90;;;;;;5156429;28;20504;-45
2023/07/25 02:37:53;;;;;;;9.77;8.00;;;15.20;99.90;;;;;;5146458;28;20188;-44
2023/07/25 02:40:24;;;;;;;14.33;7.60;;;15.20;99.90;;;;;;5144016;28;20185;-44
2023/07/25 02:42:55;;;;;;;9.70;7.70;;;15.10;99.90;;;;;;5139321;28;20205;-45
2023/07/25 02:45:26;;;;;;;10.93;8.20;;;15.10;99.90;;;;;;5139104;28;20249;-45
2023/07/25 02:47:56;;;;;;;15.17;7.97;;;15.10;99.90;;;;;;5133030;28;20193;-45
2023/07/25 02:50:27;;;;;;;10.93;7.27;;;15.20;99.90;;;;;;5156501;28;20694;-44
2023/07/25 02:52:58;;;;;;;11.33;7.37;;;15.30;99.90;;;;;;5148866;28;20205;-44
2023/07/25 02:55:30;;;;;;;16.83;10.20;;;15.40;99.90;;;;;;5130571;28;20488;-45
2023/07/25 02:58:01;;;;;;;10.90;8.40;;;15.30;99.90;;;;;;5146470;28;20994;-44
2023/07/25 03:00:31;;;;;;;7.70;7.03;;;15.40;99.90;;;;;;5140600;28;20564;-44
2023/07/25 03:03:02;;;;;;;11.27;8.37;;;15.30;99.90;;;;;;5143729;28;20205;-44
2023/07/25 03:05:33;;;;;;;15.53;7.83;;;15.30;99.90;;;;;;5141839;28;20639;-45
2023/07/25 03:08:04;;;;;;;9.33;8.43;;;15.40;99.90;;;;;;5136861;28;20185;-45
2023/07/25 03:10:34;;;;;;;16.97;10.30;;;15.30;99.90;;;;;;5146016;28;20693;-45
2023/07/25 03:13:05;;;;;;;11.67;9.03;;;15.30;99.90;;;;;;5145933;28;20721;-44
2023/07/25 03:15:36;;;;;;;10.93;8.60;;;15.20;99.90;;;;;;5130723;28;20210;-44
2023/07/25 03:18:07;;;;;;;12.83;8.23;;;15.10;99.90;;;;;;5133591;28;20534;-45
2023/07/25 03:20:38;;;;;;;13.97;7.93;;;15.10;99.90;;;;;;5144756;28;20420;-45
2023/07/25 03:23:09;;;;;;;8.10;7.30;;;15.20;99.90;;;;;;5147963;28;20657;-45
2023/07/25 03:25:39;;;;;;;11.93;7.90;;;15.10;99.90;;;;;;5143590;28;20182;-45
2023/07/25 03:28:10;;;;;;;8.27;6.70;;;15.10;99.90;;;;;;5146127;28;20207;-45
2023/07/25 03:30:41;;;;;;;9.00;7.13;;;15.20;99.90;;;;;;5143905;28;20185;-45
2023/07/25 03:33:12;;;;;;;8.37;7.57;;;15.30;99.90;;;;;;5141560;28;20572;-43
2023/07/25 03:35:42;;;;;;;7.20;5.90;;;15.30;99.90;;;;;;5145875;28;20223;-44
2023/07/25 03:38:13;;;;;;;10.27;6.40;;;15.20;99.90;;;;;;5140811;28;20184;-44
2023/07/25 03:40:44;;;;;;;5.83;5.33;;;15.30;99.90;;;;;;5137561;28;20185;-46
2023/07/25 03:43:15;;;;;;;13.23;6.13;;;15.30;99.90;;;;;;5136261;28;20249;-44
2023/07/25 03:45:45;;;;;;;7.63;5.57;;;15.10;99.90;;;;;;5146803;28;20213;-45
2023/07/25 03:48:17;;;;;;;7.90;5.27;;;15.00;99.90;;;;;;5145144;28;20197;-44
2023/07/25 03:50:48;;;;;;;7.50;6.13;;;15.00;99.90;;;;;;5144197;28;20185;-44
2023/07/25 03:53:19;;;;;;;7.20;5.90;;;15.10;99.90;;;;;;5147090;28;20475;-45
2023/07/25 03:55:50;;;;;;;9.30;6.60;;;15.10;99.90;;;;;;5146001;28;20201;-45
2023/07/25 03:58:21;;;;;;;19.17;6.57;;;15.20;99.90;;;;;;5137796;28;20532;-44
2023/07/25 04:00:51;;;;;;;10.20;5.63;;;15.20;99.90;;;;;;5137461;28;20178;-45
2023/07/25 04:03:22;;;;;;;18.87;5.80;;;15.30;99.90;;;;;;5140806;28;20678;-44
2023/07/25 04:05:53;;;;;;;5.77;5.27;;;15.30;99.90;;;;;;5136455;28;20182;-44
2023/07/25 04:08:24;;;;;;;6.97;4.73;;;15.40;99.90;;;;;;5134056;28;20243;-44
2023/07/25 04:10:55;;;;;;;7.43;5.50;;;15.40;99.90;;;;;;5141514;28;20186;-44
2023/07/25 04:13:25;;;;;;;12.83;5.20;;;15.40;99.90;;;;;;5154244;28;20198;-45
2023/07/25 04:15:56;;;;;;;5.13;4.73;;;15.40;99.90;;;;;;5135803;28;20833;-45
2023/07/25 04:18:33;;;;;;;10.80;5.10;;;15.40;99.90;;;;;;5144985;28;20240;-44
2023/07/25 04:21:04;;;;;;;6.43;4.67;;;15.50;99.90;;;;;;5138564;28;20181;-44
2023/07/25 04:23:34;;;;;;;5.87;4.90;;;15.60;99.90;;;;;;5126506;28;20573;-45
2023/07/25 04:26:05;;;;;;;17.30;4.77;;;15.60;99.90;;;;;;5146865;28;20196;-45
2023/07/25 04:28:37;;;;;;;8.77;5.67;;;15.50;99.90;;;;;;5149618;28;20574;-45
2023/07/25 04:31:09;;;;;;;6.07;4.50;;;15.60;99.90;;;;;;5144012;28;20196;-45
2023/07/25 04:33:39;;;;;;;7.30;4.53;;;15.70;99.90;;;;;;5142106;28;20465;-44
2023/07/25 04:36:10;;;;;;;8.73;5.50;;;15.80;99.90;;;;;;5143029;28;20469;-45
2023/07/25 04:38:41;;;;;;;9.50;4.20;;;15.70;99.90;;;;;;5140579;28;20276;-45
2023/07/25 04:41:12;;;;;;;5.93;4.57;;;15.70;99.90;;;;;;5157343;28;20182;-45
2023/07/25 04:43:42;;;;;;;11.67;5.10;;;15.70;99.90;;;;;;5129612;28;20202;-45
2023/07/25 04:46:13;;;;;;;7.60;3.67;;;15.70;99.90;;;;;;5144353;28;20223;-46
2023/07/25 04:48:44;;;;;;;6.67;4.50;;;15.70;99.90;;;;;;5141955;28;20190;-46
2023/07/25 04:51:14;;;;;;;7.67;4.73;;;15.80;99.90;;;;;;5144575;28;20613;-44
2023/07/25 04:53:45;;;;;;;4.50;3.90;;;15.90;99.90;;;;;;5143027;28;20202;-45
2023/07/25 04:56:16;;;;;;;5.23;4.60;;;15.90;99.90;;;;;;5138643;28;20241;-44
2023/07/25 04:58:46;;;;;;;9.20;4.27;;;16.00;99.90;;;;;;5137289;28;20280;-46
2023/07/25 05:01:17;;;;;;;4.87;3.57;;;16.10;99.90;;;;;;5145883;28;20310;-45
2023/07/25 05:03:48;;;;;;;9.53;4.07;;;16.10;99.90;;;;;;5138995;28;20195;-44
2023/07/25 05:06:19;;;;;;;7.43;3.47;;;16.20;99.90;;;;;;5148790;28;20260;-44
2023/07/25 05:08:50;;;;;;;4.67;3.83;;;16.20;99.90;;;;;;5135687;28;20196;-44
2023/07/25 05:11:20;;;;;;;8.57;3.53;;;16.20;99.90;;;;;;5148095;28;20216;-44
2023/07/25 05:13:51;;;;;;;6.83;3.97;;;16.20;99.90;;;;;;5147089;28;20205;-45
2023/07/25 05:16:22;;;;;;;5.00;3.40;;;16.30;99.90;;;;;;5141732;28;20217;-44
2023/07/25 05:18:53;;;;;;;5.03;3.43;;;16.50;99.90;;;;;;5146846;28;20268;-44
2023/07/25 05:21:23;;;;;;;7.57;3.47;;;16.60;99.90;;;;;;5134720;28;20853;-44
2023/07/25 05:23:54;;;;;;;5.27;3.10;;;16.80;99.90;;;;;;5142450;28;20256;-44
2023/07/25 05:26:25;;;;;;;2.47;2.33;;;17.30;99.90;;;;;;5152053;28;20635;-45
2023/07/25 05:28:56;;;;;;;6.83;2.57;;;17.60;99.90;;;;;;5138638;28;20181;-45
2023/07/25 05:31:26;;;;;;;7.47;2.67;;;18.00;99.90;;;;;;5144077;28;20310;-45
2023/07/25 05:33:57;;;;;;;3.90;2.60;;;18.30;99.90;;;;;;5150780;28;20209;-45
2023/07/25 05:36:28;;;;;;;6.07;3.30;;;18.50;99.90;;;;;;5122051;28;20202;-45
2023/07/25 05:38:58;;;;;;;5.67;2.33;;;18.60;99.90;;;;;;5144899;28;20554;-44
2023/07/25 05:41:29;;;;;;;6.40;2.40;;;18.30;99.90;;;;;;5145874;28;20190;-45
2023/07/25 05:44:00;;;;;;;6.73;2.90;;;18.00;99.90;;;;;;5137599;28;20205;-45
2023/07/25 05:46:30;;;;;;;5.60;2.83;;;17.70;99.90;;;;;;5149549;28;20646;-45
2023/07/25 05:49:02;;;;;;;5.70;2.50;;;17.50;99.90;;;;;;5141266;28;20202;-45
2023/07/25 05:51:32;;;;;;;5.73;2.50;;;17.10;99.90;;;;;;5142397;28;20182;-45
2023/07/25 05:54:03;;;;;;;5.83;2.37;;;17.10;99.90;;;;;;5127739;28;20961;-44
2023/07/25 05:56:35;;;;;;;2.60;2.23;;;16.80;99.90;;;;;;5132503;28;20240;-45
2023/07/25 05:59:05;;;;;;;7.37;2.37;;;17.00;99.90;;;;;;5147157;28;20181;-45
2023/07/25 06:01:38;;;;;;;4.63;2.00;;;17.90;99.90;;;;;;5146285;28;20949;-45
2023/07/25 06:04:11;;;;;;;6.63;2.03;;;19.00;99.90;;;;;;5130201;28;20194;-46
2023/07/25 06:06:42;;;;;;;3.70;1.73;;;19.80;99.90;;;;;;5144542;28;20439;-44
2023/07/25 06:09:13;;;;;;;11.27;2.10;;;20.20;99.90;;;;;;5146227;28;20429;-45
2023/07/25 06:11:43;;;;;;;5.50;2.23;;;20.50;99.90;;;;;;5149345;28;20193;-45
2023/07/25 06:14:14;;;;;;;3.77;2.30;;;22.40;99.90;;;;;;5145263;28;20292;-45
2023/07/25 06:16:45;;;;;;;1.53;1.43;;;22.40;99.90;;;;;;5136830;28;20252;-44
2023/07/25 06:19:15;;;;;;;2.20;1.53;;;21.80;99.90;;;;;;5144068;28;20190;-44
2023/07/25 06:21:46;;;;;;;4.03;1.73;;;21.80;99.90;;;;;;5147163;28;20615;-45
2023/07/25 06:24:17;;;;;;;3.10;1.73;;;21.40;99.90;;;;;;5143277;28;20682;-44
2023/07/25 06:26:48;;;;;;;3.23;1.97;;;20.80;99.90;;;;;;5128863;28;20628;-44
2023/07/25 06:29:19;;;;;;;3.43;1.60;;;20.40;99.90;;;;;;5144237;28;20496;-44
2023/07/25 06:31:49;;;;;;;9.63;1.73;;;20.00;99.90;;;;;;5145423;28;20188;-44
2023/07/25 06:34:20;;;;;;;3.83;1.50;;;20.00;99.90;;;;;;5145940;28;20209;-44
2023/07/25 06:36:54;;;;;;;2.10;1.57;;;22.10;99.90;;;;;;5129778;28;20189;-45
2023/07/25 06:39:24;;;;;;;2.67;1.40;;;25.00;96.00;;;;;;5145347;28;20209;-44
2023/07/25 06:41:58;;;;;;;2.03;1.73;;;26.50;85.70;;;;;;5147929;28;20812;-44
2023/07/25 06:44:32;;;;;;;1.43;1.33;;;27.50;69.40;;;;;;5134357;28;20240;-44
2023/07/25 06:47:03;;;;;;;4.87;1.73;;;29.00;65.10;;;;;;5145788;28;20441;-45
2023/07/25 06:49:33;;;;;;;2.50;1.53;;;30.10;55.70;;;;;;5143261;28;20444;-45
2023/07/25 06:52:04;;;;;;;1.93;1.80;;;31.20;52.90;;;;;;5140166;28;20194;-46
2023/07/25 06:54:36;;;;;;;2.30;1.50;;;30.90;50.00;;;;;;5130272;28;20211;-44
2023/07/25 06:57:07;;;;;;;3.03;2.00;;;29.30;52.10;;;;;;5146566;28;20433;-45
2023/07/25 06:59:37;;;;;;;4.20;1.47;;;27.00;56.10;;;;;;5145370;28;20433;-45
2023/07/25 07:02:08;;;;;;;2.93;1.93;;;25.10;61.90;;;;;;5133903;28;20196;-45
2023/07/25 07:04:39;;;;;;;3.07;2.03;;;23.90;67.30;;;;;;5137791;28;20264;-45
2023/07/25 07:07:10;;;;;;;2.07;1.67;;;23.30;71.50;;;;;;5133423;28;20437;-44
2023/07/25 07:09:40;;;;;;;5.63;4.77;;;24.30;75.70;;;;;;5141478;28;20265;-45
2023/07/25 07:12:11;;;;;;;3.33;2.20;;;26.50;66.60;;;;;;5136402;28;20220;-44
2023/07/25 07:14:42;;;;;;;3.60;2.13;;;27.40;61.70;;;;;;5139973;28;20315;-45
2023/07/25 07:17:12;;;;;;;1.80;1.70;;;28.50;54.60;;;;;;5148490;28;20549;-44
2023/07/25 07:19:43;;;;;;;9.63;1.90;;;28.70;53.50;;;;;;5134414;28;20234;-44
2023/07/25 07:22:14;;;;;;;1.57;1.47;;;30.90;50.40;;;;;;5145627;28;20189;-45
2023/07/25 07:24:44;;;;;;;4.67;2.10;;;32.30;47.10;;;;;;5143667;28;20305;-46
2023/07/25 07:27:17;;;;;;;1.40;1.30;;;34.00;44.40;;;;;;5134882;28;20181;-44
2023/07/25 07:29:47;;;;;;;1.97;1.50;;;34.10;42.00;;;;;;5139903;28;20201;-45
2023/07/25 07:32:18;;;;;;;2.50;1.30;;;33.60;39.80;;;;;;5136750;28;20447;-44
2023/07/25 07:34:49;;;;;;;4.50;1.63;;;34.00;41.00;;;;;;5143419;28;20224;-44
2023/07/25 07:37:21;;;;;;;2.10;1.50;;;34.70;39.50;;;;;;5140044;28;20181;-44
2023/07/25 07:39:52;;;;;;;1.77;1.67;;;33.60;40.20;;;;;;5145899;28;20185;-44
2023/07/25 07:42:22;;;;;;;3.47;1.37;;;33.10;39.90;;;;;;5145654;28;20409;-44
2023/07/25 07:44:53;;;;;;;3.47;2.20;;;30.90;42.40;;;;;;5144878;28;20181;-45
2023/07/25 07:47:24;;;;;;;1.30;1.13;;;28.50;45.40;;;;;;5143091;28;20224;-44
2023/07/25 07:49:55;;;;;;;1.97;1.47;;;28.20;46.00;;;;;;5138796;28;20290;-44
2023/07/25 07:52:26;;;;;;;1.40;1.20;;;28.90;45.00;;;;;;5140140;28;20182;-46
2023/07/25 07:54:58;;;;;;;3.23;1.40;;;30.70;45.10;;;;;;5143409;28;20289;-44
2023/07/25 07:57:29;;;;;;;2.97;1.40;;;32.60;42.00;;;;;;5146992;28;20934;-44
2023/07/25 08:00:00;;;;;;;4.97;1.50;;;32.50;41.20;;;;;;5146512;28;20425;-44
2023/07/25 08:02:31;;;;;;;3.43;1.30;;;30.20;44.30;;;;;;5143792;28;20232;-45
2023/07/25 08:05:03;;;;;;;3.63;1.57;;;28.60;48.10;;;;;;5128180;28;20539;-44
2023/07/25 08:07:34;;;;;;;2.87;2.23;;;29.80;45.90;;;;;;5135109;28;20442;-46
2023/07/25 08:10:06;;;;;;;1.30;1.20;;;30.70;41.30;;;;;;5138065;28;20441;-45
2023/07/25 08:12:37;;;;;;;1.50;1.50;;;30.30;41.10;;;;;;5139894;28;20473;-45
2023/07/25 08:15:08;;;;;;;5.17;1.73;;;29.20;44.10;;;;;;5137383;28;20886;-44
2023/07/25 08:17:39;;;;;;;1.57;1.30;;;29.00;44.40;;;;;;5131867;28;21043;-45
2023/07/25 08:20:10;;;;;;;1.27;1.17;;;29.30;45.40;;;;;;5140496;28;20528;-45
2023/07/25 08:22:40;;;;;;;1.50;1.47;;;27.80;46.50;;;;;;5134535;28;20659;-44
2023/07/25 08:25:11;;;;;;;6.23;1.57;;;26.10;49.80;;;;;;5131903;28;20441;-45
2023/07/25 08:27:42;;;;;;;9.53;2.07;;;24.70;52.10;;;;;;5142625;28;20217;-45
2023/07/25 08:30:13;;;;;;;3.90;1.33;;;23.80;54.80;;;;;;5147132;28;20210;-44
2023/07/25 08:32:43;;;;;;;1.50;1.10;;;25.20;52.80;;;;;;5133202;28;20607;-45
2023/07/25 08:35:14;;;;;;;2.10;1.20;;;27.70;47.70;;;;;;5144444;28;20213;-45
2023/07/25 08:37:45;;;;;;;1.50;1.40;;;29.90;44.90;;;;;;5130960;28;20179;-44
2023/07/25 08:40:16;;;;;;;2.97;2.03;;;29.80;44.80;;;;;;5136062;28;20182;-44
2023/07/25 08:42:49;;;;;;;4.30;1.73;;;30.80;43.30;;;;;;5142476;28;20671;-45
2023/07/25 08:45:21;;;;;;;1.70;1.00;;;30.40;41.20;;;;;;5140517;28;20812;-45
2023/07/25 08:47:54;;;;;;;1.27;1.20;;;28.80;43.80;;;;;;5143214;28;20820;-45
2023/07/25 08:50:29;;;;;;;2.50;1.37;;;28.60;44.80;;;;;;5142900;28;20969;-45
2023/07/25 08:53:04;;;;;;;1.03;0.97;;;27.70;45.90;;;;;;5129025;28;20622;-45
2023/07/25 08:55:35;;;;;;;1.43;1.33;;;27.40;47.40;;;;;;5138569;28;20464;-45
2023/07/25 08:58:05;;;;;;;2.10;1.43;;;27.10;47.30;;;;;;5147758;28;20437;-45
2023/07/25 09:00:36;;;;;;;3.17;1.20;;;26.50;47.70;;;;;;5141731;28;20318;-44
2023/07/25 09:03:08;;;;;;;2.53;2.00;;;25.60;49.50;;;;;;5144894;28;20198;-45
2023/07/25 09:05:39;;;;;;;3.33;1.33;;;25.60;51.20;;;;;;5144490;28;20248;-44
2023/07/25 09:08:10;;;;;;;2.30;1.80;;;25.40;51.10;;;;;;5140854;28;20445;-45
2023/07/25 09:10:44;;;;;;;2.67;1.20;;;25.20;51.50;;;;;;5146755;28;20482;-45
2023/07/25 09:13:17;;;;;;;5.03;2.03;;;24.90;51.80;;;;;;5141992;28;20206;-46
2023/07/25 09:15:48;;;;;;;2.40;1.27;;;24.80;54.10;;;;;;5147270;28;20468;-45
2023/07/25 09:18:19;;;;;;;1.77;1.40;;;24.80;53.20;;;;;;5131348;28;20770;-45
2023/07/25 09:20:50;;;;;;;1.80;1.50;;;24.90;52.10;;;;;;5141729;28;20636;-46
2023/07/25 09:23:21;;;;;;;1.37;1.20;;;24.70;52.40;;;;;;5134324;28;20544;-45
2023/07/25 09:26:08;;;;;;;2.50;1.87;;;24.00;53.50;;;;;;5140032;28;20705;-46
2023/07/25 09:28:59;;;;;;;1.03;1.03;;;23.60;53.50;;;;;;5135037;28;20977;-45
2023/07/25 09:31:41;;;;;;;7.67;1.63;;;23.50;53.60;;;;;;5140583;28;20442;-45
2023/07/25 09:34:17;;;;;;;1.20;1.10;;;23.90;54.50;;;;;;5144716;28;20460;-45
2023/07/25 09:36:48;;;;;;;1.23;1.00;;;24.30;52.60;;;;;;5144828;28;20921;-45
2023/07/25 09:39:19;;;;;;;2.40;1.43;;;23.90;50.50;;;;;;5156808;28;20432;-44
2023/07/25 09:41:50;;;;;;;1.83;1.43;;;23.80;51.40;;;;;;5148096;28;20215;-44
2023/07/25 09:44:21;;;;;;;5.90;1.53;;;23.60;53.10;;;;;;5135827;28;20212;-46
2023/07/25 09:46:53;;;;;;;1.20;1.17;;;23.70;53.70;;;;;;5141775;28;20425;-46
2023/07/25 09:49:25;;;;;;;1.10;1.10;;;23.60;54.50;;;;;;5141346;28;20227;-48
2023/07/25 09:52:00;;;;;;;2.63;1.60;;;23.60;55.00;;;;;;5146785;28;20412;-45
2023/07/25 09:54:31;;;;;;;1.53;1.17;;;23.50;55.10;;;;;;5131039;28;20474;-45
2023/07/25 09:57:02;;;;;;;3.17;1.30;;;23.50;55.40;;;;;;5139841;28;20469;-46
2023/07/25 09:59:35;;;;;;;2.73;1.90;;;23.50;55.20;;;;;;5146081;28;20519;-45
2023/07/25 10:02:06;;;;;;;8.40;2.13;;;23.90;56.10;;;;;;5142360;28;20438;-45
2023/07/25 10:04:38;;;;;;;3.80;1.83;;;24.10;54.30;;;;;;5138655;28;20468;-44
2023/07/25 10:07:10;;;;;;;2.10;1.70;;;24.20;54.10;;;;;;5143351;28;20437;-46
2023/07/25 10:09:42;;;;;;;1.90;1.47;;;23.80;53.00;;;;;;5132988;28;20444;-45
2023/07/25 10:12:16;;;;;;;3.90;1.43;;;23.70;53.20;;;;;;5141550;28;20428;-45
2023/07/25 10:14:46;;;;;;;1.00;1.00;;;23.30;54.40;;;;;;5138435;28;20480;-46
2023/07/25 10:17:17;;;;;;;1.90;1.60;;;23.10;54.60;;;;;;5136911;28;20926;-46
2023/07/25 10:19:51;;;;;;;1.60;1.50;;;23.40;55.20;;;;;;5146560;28;20201;-49
2023/07/25 10:22:37;;;;;;;3.00;1.50;;;23.80;54.50;;;;;;5139073;28;20189;-44
2023/07/25 10:25:18;;;;;;;4.33;2.70;;;23.80;54.10;;;;;;5145630;28;20450;-45
2023/07/25 10:27:54;;;;;;;3.00;2.70;;;23.60;53.80;;;;;;5131869;28;20437;-44
2023/07/25 10:30:27;;;;;;;8.87;5.70;;;23.40;55.00;;;;;;5153866;28;20486;-45
2023/07/25 10:33:01;;;;;;;14.77;9.47;;;23.40;54.50;;;;;;5146865;28;21050;-46
2023/07/25 10:35:41;;;;;;;2.33;2.17;;;23.10;54.90;;;;;;5136416;28;20465;-45
2023/07/25 10:38:14;;;;;;;1.30;1.20;;;23.40;55.60;;;;;;5138170;28;20434;-44
2023/07/25 10:41:09;;;;;;;3.70;1.50;;;23.50;53.10;;;;;;5148654;28;20441;-45
2023/07/25 10:43:46;;;;;;;2.00;1.80;;;23.80;54.60;;;;;;5144579;28;20548;-45
2023/07/25 10:46:18;;;;;;;2.73;2.53;;;24.40;52.70;;;;;;5143887;28;20799;-44
2023/07/25 10:48:51;;;;;;;6.70;5.07;;;24.40;50.90;;;;;;5144813;28;20903;-45
2023/07/25 10:51:23;;;;;;;1.73;1.63;;;24.60;50.60;;;;;;5138252;28;20796;-45
2023/07/25 10:54:16;;;;;;;2.00;1.90;;;24.60;50.40;;;;;;5145616;28;20465;-45
2023/07/25 10:57:09;;;;;;;8.23;2.60;;;24.20;50.50;;;;;;5142078;28;20464;-46
2023/07/25 11:00:00;;;;;;;4.43;2.30;;;24.00;50.70;;;;;;5138673;28;20584;-46
2023/07/25 11:02:35;;;;;;;3.37;1.60;;;23.70;52.30;;;;;;5138907;28;20459;-46
2023/07/25 11:05:12;;;;;;;2.30;1.87;;;23.50;51.60;;;;;;5143788;28;20431;-45
2023/07/25 11:07:49;;;;;;;1.77;1.10;;;23.30;52.20;;;;;;5138767;28;20430;-47
2023/07/25 11:10:26;;;;;;;8.43;4.57;;;23.10;50.80;;;;;;5145152;28;20472;-46
2023/07/25 11:12:59;;;;;;;2.60;1.90;;;23.20;52.10;;;;;;5144205;28;20429;-46
2023/07/25 11:15:30;;;;;;;4.33;1.30;;;23.40;51.40;;;;;;5146086;28;20499;-45
2023/07/25 11:18:08;;;;;;;1.73;1.63;;;23.10;51.50;;;;;;5133474;28;20496;-45
2023/07/25 11:20:39;;;;;;;1.57;1.10;;;23.10;52.60;;;;;;5145303;28;20268;-46
2023/07/25 11:23:10;;;;;;;4.50;1.67;;;22.70;52.00;;;;;;5143098;28;20918;-45
2023/07/25 11:25:41;;;;;;;1.80;1.70;;;22.60;53.10;;;;;;5137803;28;20178;-45
2023/07/25 11:28:14;;;;;;;2.20;1.30;;;22.80;53.90;;;;;;5141408;28;20783;-45
2023/07/25 11:30:45;;;;;;;2.17;2.07;;;23.00;53.70;;;;;;5137964;28;20225;-47
2023/07/25 11:33:16;;;;;;;14.23;8.63;;;23.10;53.40;;;;;;5140292;28;20981;-45
2023/07/25 11:35:56;;;;;;;4.63;4.20;;;23.20;52.40;;;;;;5133938;28;20198;-45
2023/07/25 11:38:27;;;;;;;4.43;3.77;;;23.10;52.30;;;;;;5139165;28;20216;-45
2023/07/25 11:40:59;;;;;;;4.40;3.00;;;23.10;52.30;;;;;;5137967;28;20489;-46
2023/07/25 11:43:31;;;;;;;2.60;1.80;;;23.10;52.70;;;;;;5142397;28;20878;-46
2023/07/25 11:46:02;;;;;;;4.00;2.17;;;23.10;53.00;;;;;;5134037;28;20520;-45
2023/07/25 11:48:33;;;;;;;2.27;1.60;;;23.20;53.10;;;;;;5135380;28;20508;-45
2023/07/25 11:51:04;;;;;;;1.50;1.40;;;23.50;52.30;;;;;;5143168;28;20197;-45
2023/07/25 11:53:35;;;;;;;3.40;2.17;;;23.40;52.10;;;;;;5135313;28;20465;-45
2023/07/25 11:56:06;;;;;;;1.50;1.40;;;23.40;52.70;;;;;;5135962;28;20605;-46
2023/07/25 11:58:37;;;;;;;1.70;1.20;;;23.20;52.50;;;;;;5141426;28;20253;-44
2023/07/25 12:01:08;;;;;;;1.40;1.30;;;23.10;53.20;;;;;;5140937;28;20182;-46
2023/07/25 12:03:46;;;;;;;4.83;1.60;;;23.20;53.70;;;;;;5139095;28;20576;-45
2023/07/25 12:06:26;;;;;;;3.77;2.40;;;23.50;52.60;;;;;;5143285;28;20455;-45
2023/07/25 12:08:59;;;;;;;4.33;1.87;;;23.40;51.90;;;;;;5138938;28;20448;-45
2023/07/25 12:11:30;;;;;;;12.03;3.40;;;23.50;51.50;;;;;;5141723;28;20806;-44
2023/07/25 12:14:01;;;;;;;2.93;2.57;;;23.40;51.80;;;;;;5136107;28;20552;-45
2023/07/25 12:16:36;;;;;;;4.20;2.80;;;23.30;52.70;;;;;;5142111;28;20679;-45
2023/07/25 12:19:08;;;;;;;1.80;1.70;;;23.40;53.50;;;;;;5142642;28;20841;-45
2023/07/25 12:21:43;;;;;;;2.63;1.60;;;23.80;53.50;;;;;;5137540;28;20421;-45
2023/07/25 12:24:15;;;;;;;1.83;1.63;;;23.90;51.60;;;;;;5143898;28;20866;-46
2023/07/25 12:26:48;;;;;;;1.57;1.47;;;23.70;51.70;;;;;;5125436;28;20963;-45
2023/07/25 12:29:26;;;;;;;1.87;1.77;;;23.70;51.70;;;;;;5143675;28;20448;-45
2023/07/25 12:31:57;;;;;;;4.10;2.60;;;23.60;51.70;;;;;;5140366;28;20438;-44
2023/07/25 12:34:27;;;;;;;1.90;1.63;;;23.20;50.40;;;;;;5138583;28;20758;-45
2023/07/25 12:37:00;;;;;;;2.40;1.37;;;22.80;52.00;;;;;;5142601;28;20372;-46
2023/07/25 12:39:31;;;;;;;6.10;3.80;;;22.80;52.40;;;;;;5135495;28;20186;-45
2023/07/25 12:42:02;;;;;;;1.97;1.53;;;22.50;52.40;;;;;;5133656;28;20959;-45
2023/07/25 12:44:34;;;;;;;2.50;2.27;;;22.00;53.20;;;;;;5141535;28;20199;-44
2023/07/25 12:47:05;;;;;;;3.23;1.40;;;21.90;53.60;;;;;;5139200;28;20182;-45
2023/07/25 12:49:36;;;;;;;4.60;1.80;;;21.60;53.40;;;;;;5140421;28;20445;-45
2023/07/25 12:52:07;;;;;;;2.30;2.10;;;21.50;54.60;;;;;;5145414;28;20433;-45
2023/07/25 12:54:38;;;;;;;5.43;1.70;;;21.50;55.00;;;;;;5145620;28;20272;-46
2023/07/25 12:57:09;;;;;;;8.27;2.20;;;21.20;55.10;;;;;;5136853;28;20924;-45
2023/07/25 12:59:39;;;;;;;4.50;2.17;;;21.10;55.40;;;;;;5147621;28;20177;-45
2023/07/25 13:02:10;;;;;;;2.97;2.07;;;21.00;55.80;;;;;;5146025;28;20177;-45
2023/07/25 13:04:41;;;;;;;9.90;3.37;;;21.10;56.10;;;;;;5145590;28;20269;-44
2023/07/25 13:07:13;;;;;;;5.73;2.83;;;21.40;55.80;;;;;;5147150;28;20432;-45
2023/07/25 13:09:43;;;;;;;2.50;1.77;;;21.70;55.50;;;;;;5147225;28;20285;-46